Terminal Aerodrome Forecast
Issued by NWS Rapid City, SD

Home | Current Version | Previous Version | Graphics & Text | Print | Product List | Glossary On
Versions: 1 2 3 4 5 6 7 8 9 10 11 12 13 14 15 16
000
FTUS43 KUNR 171100
TAFRAP
TAF
KRAP 171120Z 1712/1812 35010KT P6SM SCT120
     FM171700 16012KT P6SM SCT060 BKN120
      TEMPO 1721/1724 TSRA BKN060CB
     FM180000 34014KT P6SM BKN120=

USA.gov is the U.S. government's official web portal to all federal, state and local government web resources and services.